Accueil
METAR-TAF:

METAR-TAF

Aéroports :

Aéroport de Chambéry-Savoie

Chambery / Aix-Les-Bains, France

latitude: 45-39N, longitude: 005-53E, altitude: 235 m

Observation

Le bulletin a été fait il y a 46 minutes, à 18:30 UTC
Vent 10 kt de nord
Température 9°C
Humidité 40%
Pression 1019 hPa
Visibilité 10 km ou plus
pas de nuages en-dessous de 1500 mètres et pas de cumulonimbus.

METAR: LFLB 311830Z AUTO 36010KT CAVOK 09/M04 Q1019 NOSIG

Heure: 21:16 (19:16 UTC)

Prévision

Le bulletin a été fait il y a 8 heures et 16 minutes, à 11:00 UTC
Prévision valable du 31 à 12 UTC au 01 à 12 UTC
Vent 13 kt de nord
Visibilité 10 km ou plus
Nuages épars à une hauteur de 4500 ft
Evoluant progressivement
du 31 à 12 UTC au 31 à 13 UTC
Visibilité 10 km ou plus
pas de nuages en-dessous de 1500 mètres et pas de cumulonimbus.

TAF: LFLB 311100Z 3112/0112 35013KT 9999 SCT045 BECMG 3112/3113 CAVOK

Observations et prévisions météorologiques de plus de 4000 aéroports (messages METAR et TAF).

Les stations disponibles sont représentées par des disques jaunes et rouges sur la carte.

Passer la souris dessus pour voir le nom de la station.

Cliquer dessus pour voir les observations et prévisions météorologiques.

Pour changer de carte: cliquez sur les boutons verts avec une croix noire pour zoomer, sur le bouton vert avec un tiret pour effectuer un zoom arrière, ou sur les flèches vertes pour les cartes adjacentes.


METAR-TAF: